sensor_id;sensor_type;location;lat;lon;timestamp;pressure;altitude;pressure_sealevel;temperature;humidity
54588;BME280;40484;50.198;19.576;2023-04-23T00:08:42;101335.56;;;15.67;36.07
54588;BME280;40484;50.198;19.576;2023-04-23T00:13:44;101337.38;;;15.71;36.05
54588;BME280;40484;50.198;19.576;2023-04-23T00:18:47;101334.50;;;15.67;36.17
54588;BME280;40484;50.198;19.576;2023-04-23T00:23:49;101338.52;;;15.62;35.80
54588;BME280;40484;50.198;19.576;2023-04-23T00:28:50;101330.05;;;15.71;35.98
54588;BME280;40484;50.198;19.576;2023-04-23T00:33:52;101329.72;;;15.79;35.96
54588;BME280;40484;50.198;19.576;2023-04-23T00:38:54;101320.92;;;15.79;35.75
54588;BME280;40484;50.198;19.576;2023-04-23T00:43:56;101315.91;;;15.77;35.49
54588;BME280;40484;50.198;19.576;2023-04-23T00:48:59;101313.32;;;15.68;35.06
54588;BME280;40484;50.198;19.576;2023-04-23T00:54:00;101322.34;;;15.65;35.52
54588;BME280;40484;50.198;19.576;2023-04-23T00:59:02;101319.59;;;15.66;35.93
54588;BME280;40484;50.198;19.576;2023-04-23T01:04:03;101322.34;;;15.65;36.29
54588;BME280;40484;50.198;19.576;2023-04-23T01:09:06;101323.92;;;15.54;36.57
54588;BME280;40484;50.198;19.576;2023-04-23T01:14:10;101328.91;;;15.23;36.86
54588;BME280;40484;50.198;19.576;2023-04-23T01:19:11;101332.16;;;15.15;36.69
54588;BME280;40484;50.198;19.576;2023-04-23T01:24:13;101325.70;;;15.10;36.74
54588;BME280;40484;50.198;19.576;2023-04-23T01:29:15;101323.50;;;15.01;36.89
54588;BME280;40484;50.198;19.576;2023-04-23T01:34:17;101321.72;;;14.92;36.97
54588;BME280;40484;50.198;19.576;2023-04-23T01:39:19;101327.28;;;14.79;37.10
54588;BME280;40484;50.198;19.576;2023-04-23T01:44:21;101323.23;;;14.66;37.49
54588;BME280;40484;50.198;19.576;2023-04-23T01:49:47;101322.22;;;14.61;37.53
54588;BME280;40484;50.198;19.576;2023-04-23T01:54:48;101318.09;;;14.56;37.61
54588;BME280;40484;50.198;19.576;2023-04-23T01:59:50;101320.19;;;14.52;37.69
54588;BME280;40484;50.198;19.576;2023-04-23T02:04:52;101327.74;;;14.48;37.71
54588;BME280;40484;50.198;19.576;2023-04-23T02:09:55;101317.08;;;14.46;37.79
54588;BME280;40484;50.198;19.576;2023-04-23T02:14:56;101322.93;;;14.48;37.78
54588;BME280;40484;50.198;19.576;2023-04-23T02:19:58;101319.85;;;14.41;37.91
54588;BME280;40484;50.198;19.576;2023-04-23T02:24:59;101316.23;;;14.23;38.02
54588;BME280;40484;50.198;19.576;2023-04-23T02:30:02;101311.65;;;14.18;38.20
54588;BME280;40484;50.198;19.576;2023-04-23T02:35:05;101312.12;;;14.13;38.23
54588;BME280;40484;50.198;19.576;2023-04-23T02:40:07;101315.93;;;14.06;38.42
54588;BME280;40484;50.198;19.576;2023-04-23T02:45:09;101310.75;;;13.99;38.56
54588;BME280;40484;50.198;19.576;2023-04-23T02:50:11;101307.68;;;13.89;38.78
54588;BME280;40484;50.198;19.576;2023-04-23T02:55:13;101303.36;;;13.78;38.93
54588;BME280;40484;50.198;19.576;2023-04-23T03:00:14;101316.52;;;13.78;38.92
54588;BME280;40484;50.198;19.576;2023-04-23T03:05:18;101303.14;;;13.77;39.02
54588;BME280;40484;50.198;19.576;2023-04-23T03:10:19;101299.81;;;13.77;39.02
54588;BME280;40484;50.198;19.576;2023-04-23T03:15:21;101307.79;;;13.66;39.00
54588;BME280;40484;50.198;19.576;2023-04-23T03:20:22;101314.12;;;13.55;39.05
54588;BME280;40484;50.198;19.576;2023-04-23T03:25:24;101306.23;;;13.45;39.12
54588;BME280;40484;50.198;19.576;2023-04-23T03:30:26;101309.59;;;13.42;39.23
54588;BME280;40484;50.198;19.576;2023-04-23T03:35:52;101311.26;;;13.44;39.32
54588;BME280;40484;50.198;19.576;2023-04-23T03:40:54;101306.88;;;13.37;39.53
54588;BME280;40484;50.198;19.576;2023-04-23T03:45:55;101309.23;;;13.29;39.71
54588;BME280;40484;50.198;19.576;2023-04-23T03:50:57;101300.88;;;13.29;39.81
54588;BME280;40484;50.198;19.576;2023-04-23T03:55:58;101316.73;;;13.30;39.94
54588;BME280;40484;50.198;19.576;2023-04-23T04:01:00;101309.62;;;13.31;40.05
54588;BME280;40484;50.198;19.576;2023-04-23T04:06:02;101310.43;;;13.37;40.03
54588;BME280;40484;50.198;19.576;2023-04-23T04:11:03;101313.37;;;13.38;40.06
54588;BME280;40484;50.198;19.576;2023-04-23T04:16:05;101313.52;;;13.47;40.07
54588;BME280;40484;50.198;19.576;2023-04-23T04:21:06;101311.61;;;13.55;40.13
54588;BME280;40484;50.198;19.576;2023-04-23T04:26:08;101311.16;;;13.62;40.25
54588;BME280;40484;50.198;19.576;2023-04-23T04:31:10;101317.62;;;13.69;40.40
54588;BME280;40484;50.198;19.576;2023-04-23T04:36:12;101309.60;;;13.80;40.38
54588;BME280;40484;50.198;19.576;2023-04-23T04:41:14;101313.28;;;13.95;40.41
54588;BME280;40484;50.198;19.576;2023-04-23T04:46:16;101309.41;;;14.11;40.30
54588;BME280;40484;50.198;19.576;2023-04-23T04:51:20;101314.32;;;14.28;40.36
54588;BME280;40484;50.198;19.576;2023-04-23T04:56:22;101307.84;;;14.56;40.39
54588;BME280;40484;50.198;19.576;2023-04-23T05:01:26;101316.61;;;14.81;40.83
54588;BME280;40484;50.198;19.576;2023-04-23T05:06:28;101320.99;;;15.20;40.80
54588;BME280;40484;50.198;19.576;2023-04-23T05:11:30;101320.23;;;15.66;40.42
54588;BME280;40484;50.198;19.576;2023-04-23T05:16:32;101315.91;;;16.06;40.23
54588;BME280;40484;50.198;19.576;2023-04-23T05:21:58;101318.94;;;16.53;39.37
54588;BME280;40484;50.198;19.576;2023-04-23T05:27:02;101322.52;;;16.92;38.27
54588;BME280;40484;50.198;19.576;2023-04-23T05:32:04;101313.77;;;17.32;37.21
54588;BME280;40484;50.198;19.576;2023-04-23T05:37:05;101316.02;;;17.74;36.19
54588;BME280;40484;50.198;19.576;2023-04-23T05:42:07;101319.81;;;17.94;35.48
54588;BME280;40484;50.198;19.576;2023-04-23T05:47:09;101319.91;;;18.17;33.43
54588;BME280;40484;50.198;19.576;2023-04-23T05:52:11;101314.97;;;18.55;33.46
54588;BME280;40484;50.198;19.576;2023-04-23T05:57:13;101314.63;;;18.85;32.97
54588;BME280;40484;50.198;19.576;2023-04-23T06:02:15;101317.01;;;19.07;32.31
54588;BME280;40484;50.198;19.576;2023-04-23T06:07:16;101314.16;;;19.03;32.01
54588;BME280;40484;50.198;19.576;2023-04-23T06:12:18;101312.85;;;19.21;31.70
54588;BME280;40484;50.198;19.576;2023-04-23T06:17:19;101319.84;;;19.41;31.60
54588;BME280;40484;50.198;19.576;2023-04-23T06:22:21;101318.71;;;19.37;31.30
54588;BME280;40484;50.198;19.576;2023-04-23T06:27:22;101326.41;;;19.18;31.64
54588;BME280;40484;50.198;19.576;2023-04-23T06:32:24;101323.12;;;19.22;31.66
54588;BME280;40484;50.198;19.576;2023-04-23T06:37:25;101320.33;;;19.17;32.35
54588;BME280;40484;50.198;19.576;2023-04-23T06:42:28;101316.73;;;19.55;31.29
54588;BME280;40484;50.198;19.576;2023-04-23T06:47:30;101318.66;;;19.60;31.12
54588;BME280;40484;50.198;19.576;2023-04-23T06:52:31;101320.43;;;19.80;30.86
54588;BME280;40484;50.198;19.576;2023-04-23T06:57:33;101310.53;;;19.93;30.52
54588;BME280;40484;50.198;19.576;2023-04-23T07:02:34;101308.34;;;19.89;30.13
54588;BME280;40484;50.198;19.576;2023-04-23T07:08:02;101315.27;;;20.16;30.32
54588;BME280;40484;50.198;19.576;2023-04-23T07:13:04;101312.11;;;20.23;30.05
54588;BME280;40484;50.198;19.576;2023-04-23T07:18:07;101318.40;;;20.32;30.20
54588;BME280;40484;50.198;19.576;2023-04-23T07:23:08;101318.35;;;20.25;30.15
54588;BME280;40484;50.198;19.576;2023-04-23T07:28:10;101313.10;;;20.25;29.97
54588;BME280;40484;50.198;19.576;2023-04-23T07:33:12;101314.83;;;20.43;30.66
54588;BME280;40484;50.198;19.576;2023-04-23T07:38:13;101316.98;;;20.62;30.37
54588;BME280;40484;50.198;19.576;2023-04-23T07:43:15;101316.84;;;20.72;30.15
54588;BME280;40484;50.198;19.576;2023-04-23T07:48:17;101300.60;;;20.95;30.78
54588;BME280;40484;50.198;19.576;2023-04-23T07:53:18;101301.22;;;21.08;30.14
54588;BME280;40484;50.198;19.576;2023-04-23T07:58:20;101305.23;;;21.14;29.61
54588;BME280;40484;50.198;19.576;2023-04-23T08:03:22;101313.46;;;20.91;29.35
54588;BME280;40484;50.198;19.576;2023-04-23T08:08:24;101292.67;;;21.16;29.19
54588;BME280;40484;50.198;19.576;2023-04-23T08:13:25;101288.59;;;21.53;29.63
54588;BME280;40484;50.198;19.576;2023-04-23T08:18:27;101286.19;;;21.71;29.75
54588;BME280;40484;50.198;19.576;2023-04-23T08:23:28;101287.31;;;21.24;26.67
54588;BME280;40484;50.198;19.576;2023-04-23T08:28:30;101290.31;;;21.00;27.36
54588;BME280;40484;50.198;19.576;2023-04-23T08:33:31;101285.81;;;20.78;27.42
54588;BME280;40484;50.198;19.576;2023-04-23T08:38:33;101277.09;;;21.20;27.29
54588;BME280;40484;50.198;19.576;2023-04-23T08:43:51;101276.93;;;21.30;27.19
54588;BME280;40484;50.198;19.576;2023-04-23T08:49:15;101273.53;;;21.87;26.22
54588;BME280;40484;50.198;19.576;2023-04-23T08:54:23;101268.85;;;21.92;26.21
54588;BME280;40484;50.198;19.576;2023-04-23T08:59:28;101258.89;;;21.55;26.07
54588;BME280;40484;50.198;19.576;2023-04-23T09:04:29;101256.63;;;21.81;27.35
54588;BME280;40484;50.198;19.576;2023-04-23T09:09:32;101246.20;;;22.03;26.98
54588;BME280;40484;50.198;19.576;2023-04-23T09:14:34;101258.45;;;22.30;27.35
54588;BME280;40484;50.198;19.576;2023-04-23T09:19:38;101246.70;;;22.17;25.11
54588;BME280;40484;50.198;19.576;2023-04-23T09:24:42;101239.46;;;22.02;25.81
54588;BME280;40484;50.198;19.576;2023-04-23T09:29:44;101244.45;;;22.21;25.55
54588;BME280;40484;50.198;19.576;2023-04-23T09:34:45;101240.97;;;22.23;26.25
54588;BME280;40484;50.198;19.576;2023-04-23T09:39:48;101241.77;;;22.34;25.51
54588;BME280;40484;50.198;19.576;2023-04-23T09:44:56;101240.41;;;22.26;24.59
54588;BME280;40484;50.198;19.576;2023-04-23T09:49:58;101231.55;;;22.35;24.82
54588;BME280;40484;50.198;19.576;2023-04-23T09:55:01;101230.40;;;22.17;25.23
54588;BME280;40484;50.198;19.576;2023-04-23T10:00:14;101219.49;;;21.78;25.97
54588;BME280;40484;50.198;19.576;2023-04-23T10:05:48;101216.45;;;22.22;23.66
54588;BME280;40484;50.198;19.576;2023-04-23T10:10:49;101216.43;;;22.51;24.06
54588;BME280;40484;50.198;19.576;2023-04-23T10:15:51;101195.83;;;22.77;22.54
54588;BME280;40484;50.198;19.576;2023-04-23T10:20:53;101201.68;;;22.88;21.67
54588;BME280;40484;50.198;19.576;2023-04-23T10:25:55;101201.27;;;22.88;22.19
54588;BME280;40484;50.198;19.576;2023-04-23T10:30:58;101181.52;;;23.22;22.14
54588;BME280;40484;50.198;19.576;2023-04-23T10:36:00;101169.72;;;23.24;21.85
54588;BME280;40484;50.198;19.576;2023-04-23T10:41:02;101187.93;;;22.93;22.48
54588;BME280;40484;50.198;19.576;2023-04-23T10:46:15;101171.38;;;23.21;23.45
54588;BME280;40484;50.198;19.576;2023-04-23T10:51:07;101158.13;;;23.54;22.89
54588;BME280;40484;50.198;19.576;2023-04-23T10:56:09;101169.34;;;23.94;21.91
54588;BME280;40484;50.198;19.576;2023-04-23T11:01:11;101152.30;;;23.48;23.07
54588;BME280;40484;50.198;19.576;2023-04-23T11:06:49;101157.77;;;24.30;22.92
54588;BME280;40484;50.198;19.576;2023-04-23T11:11:41;101151.87;;;24.54;22.22
54588;BME280;40484;50.198;19.576;2023-04-23T11:16:42;101149.16;;;24.20;21.93
54588;BME280;40484;50.198;19.576;2023-04-23T11:21:57;101154.76;;;24.22;20.86
54588;BME280;40484;50.198;19.576;2023-04-23T11:27:23;101146.39;;;24.23;21.12
54588;BME280;40484;50.198;19.576;2023-04-23T11:32:26;101137.41;;;24.85;20.69
54588;BME280;40484;50.198;19.576;2023-04-23T11:37:28;101125.60;;;25.15;20.28
54588;BME280;40484;50.198;19.576;2023-04-23T11:42:29;101128.73;;;25.46;19.78
54588;BME280;40484;50.198;19.576;2023-04-23T11:47:31;101124.59;;;25.85;20.49
54588;BME280;40484;50.198;19.576;2023-04-23T11:52:33;101127.51;;;25.74;20.42
54588;BME280;40484;50.198;19.576;2023-04-23T11:57:36;101128.63;;;25.99;19.52
54588;BME280;40484;50.198;19.576;2023-04-23T12:02:48;101120.13;;;26.20;18.47
54588;BME280;40484;50.198;19.576;2023-04-23T12:07:41;101128.45;;;25.58;18.39
54588;BME280;40484;50.198;19.576;2023-04-23T12:12:43;101115.29;;;25.35;18.64
54588;BME280;40484;50.198;19.576;2023-04-23T12:17:53;101123.35;;;25.25;19.10
54588;BME280;40484;50.198;19.576;2023-04-23T12:22:51;101108.44;;;24.90;19.06
54588;BME280;40484;50.198;19.576;2023-04-23T12:27:53;101100.38;;;25.13;19.21
54588;BME280;40484;50.198;19.576;2023-04-23T12:33:03;101091.09;;;25.23;20.26
54588;BME280;40484;50.198;19.576;2023-04-23T12:38:06;101100.19;;;25.83;19.11
54588;BME280;40484;50.198;19.576;2023-04-23T12:43:08;101095.98;;;25.31;18.77
54588;BME280;40484;50.198;19.576;2023-04-23T12:48:09;101083.45;;;25.34;19.26
54588;BME280;40484;50.198;19.576;2023-04-23T12:53:11;101084.27;;;25.35;19.68
54588;BME280;40484;50.198;19.576;2023-04-23T12:58:39;101075.43;;;25.48;18.08
54588;BME280;40484;50.198;19.576;2023-04-23T13:03:41;101075.95;;;25.46;18.89
54588;BME280;40484;50.198;19.576;2023-04-23T13:08:42;101064.41;;;26.19;19.03
54588;BME280;40484;50.198;19.576;2023-04-23T13:13:44;101058.78;;;26.62;18.54
54588;BME280;40484;50.198;19.576;2023-04-23T13:18:45;101067.79;;;25.91;18.38
54588;BME280;40484;50.198;19.576;2023-04-23T13:23:47;101062.54;;;25.93;18.09
54588;BME280;40484;50.198;19.576;2023-04-23T13:28:48;101046.59;;;25.86;18.69
54588;BME280;40484;50.198;19.576;2023-04-23T13:33:50;101042.59;;;25.92;18.31
54588;BME280;40484;50.198;19.576;2023-04-23T13:38:51;101028.98;;;26.47;18.85
54588;BME280;40484;50.198;19.576;2023-04-23T13:43:53;101036.59;;;26.48;17.92
54588;BME280;40484;50.198;19.576;2023-04-23T13:48:55;101038.04;;;26.73;18.30
54588;BME280;40484;50.198;19.576;2023-04-23T13:53:56;101013.05;;;26.32;18.00
54588;BME280;40484;50.198;19.576;2023-04-23T13:58:59;101017.98;;;26.32;18.51
54588;BME280;40484;50.198;19.576;2023-04-23T14:04:04;101015.78;;;26.13;18.33
54588;BME280;40484;50.198;19.576;2023-04-23T14:09:05;101015.22;;;25.58;18.77
54588;BME280;40484;50.198;19.576;2023-04-23T14:14:07;101009.06;;;25.72;18.67
54588;BME280;40484;50.198;19.576;2023-04-23T14:19:08;100999.16;;;26.37;19.13
54588;BME280;40484;50.198;19.576;2023-04-23T14:24:17;100987.73;;;26.79;18.17
54588;BME280;40484;50.198;19.576;2023-04-23T14:29:23;100990.49;;;27.08;19.20
54588;BME280;40484;50.198;19.576;2023-04-23T14:34:51;100989.69;;;27.37;18.10
54588;BME280;40484;50.198;19.576;2023-04-23T14:39:53;100997.02;;;26.71;18.29
54588;BME280;40484;50.198;19.576;2023-04-23T14:44:54;100993.49;;;26.82;18.09
54588;BME280;40484;50.198;19.576;2023-04-23T14:49:58;100992.79;;;26.67;18.18
54588;BME280;40484;50.198;19.576;2023-04-23T14:55:00;100985.39;;;26.75;18.68
54588;BME280;40484;50.198;19.576;2023-04-23T15:00:03;100979.98;;;27.03;19.23
54588;BME280;40484;50.198;19.576;2023-04-23T15:05:06;100974.85;;;27.16;18.46
54588;BME280;40484;50.198;19.576;2023-04-23T15:10:09;100985.23;;;27.40;17.65
54588;BME280;40484;50.198;19.576;2023-04-23T15:15:25;100975.71;;;27.20;17.82
54588;BME280;40484;50.198;19.576;2023-04-23T15:20:23;100973.24;;;26.56;18.36
54588;BME280;40484;50.198;19.576;2023-04-23T15:25:25;100968.49;;;26.46;18.82
54588;BME280;40484;50.198;19.576;2023-04-23T15:30:27;100971.52;;;26.83;18.30
54588;BME280;40484;50.198;19.576;2023-04-23T15:35:28;100966.36;;;27.25;18.10
54588;BME280;40484;50.198;19.576;2023-04-23T15:40:30;100963.64;;;27.24;17.64
54588;BME280;40484;50.198;19.576;2023-04-23T15:45:33;100961.35;;;27.00;18.04
54588;BME280;40484;50.198;19.576;2023-04-23T15:50:35;100954.38;;;27.22;18.41
54588;BME280;40484;50.198;19.576;2023-04-23T15:55:36;100951.47;;;27.49;18.04
54588;BME280;40484;50.198;19.576;2023-04-23T16:00:39;100952.17;;;27.33;18.09
54588;BME280;40484;50.198;19.576;2023-04-23T16:06:07;100946.90;;;27.73;17.76
54588;BME280;40484;50.198;19.576;2023-04-23T16:11:09;100948.53;;;27.92;17.89
54588;BME280;40484;50.198;19.576;2023-04-23T16:16:12;100937.92;;;27.91;17.83
54588;BME280;40484;50.198;19.576;2023-04-23T16:21:13;100929.44;;;27.78;17.99
54588;BME280;40484;50.198;19.576;2023-04-23T16:26:15;100936.06;;;27.78;17.87
54588;BME280;40484;50.198;19.576;2023-04-23T16:31:16;100932.68;;;27.43;18.29
54588;BME280;40484;50.198;19.576;2023-04-23T16:36:18;100931.20;;;26.96;18.71
54588;BME280;40484;50.198;19.576;2023-04-23T16:41:20;100933.84;;;26.62;19.14
54588;BME280;40484;50.198;19.576;2023-04-23T16:46:22;100925.82;;;26.61;19.40
54588;BME280;40484;50.198;19.576;2023-04-23T16:51:25;100922.23;;;26.56;19.52
54588;BME280;40484;50.198;19.576;2023-04-23T16:56:28;100927.34;;;26.76;19.58
54588;BME280;40484;50.198;19.576;2023-04-23T17:01:30;100922.25;;;26.98;19.91
54588;BME280;40484;50.198;19.576;2023-04-23T17:06:32;100925.46;;;27.08;20.79
54588;BME280;40484;50.198;19.576;2023-04-23T17:11:33;100918.50;;;27.32;21.35
54588;BME280;40484;50.198;19.576;2023-04-23T17:16:36;100919.79;;;27.23;21.79
54588;BME280;40484;50.198;19.576;2023-04-23T17:21:37;100920.38;;;26.88;22.45
54588;BME280;40484;50.198;19.576;2023-04-23T17:26:39;100921.97;;;26.47;22.82
54588;BME280;40484;50.198;19.576;2023-04-23T17:31:40;100918.83;;;26.10;23.39
54588;BME280;40484;50.198;19.576;2023-04-23T17:36:42;100918.38;;;25.69;24.25
54588;BME280;40484;50.198;19.576;2023-04-23T17:41:43;100933.88;;;25.20;25.14
54588;BME280;40484;50.198;19.576;2023-04-23T17:46:45;100925.11;;;24.91;25.46
54588;BME280;40484;50.198;19.576;2023-04-23T17:52:11;100931.59;;;24.75;26.11
54588;BME280;40484;50.198;19.576;2023-04-23T17:57:13;100935.94;;;24.47;26.72
54588;BME280;40484;50.198;19.576;2023-04-23T18:02:14;100937.93;;;24.14;27.40
54588;BME280;40484;50.198;19.576;2023-04-23T18:07:16;100937.88;;;23.75;28.03
54588;BME280;40484;50.198;19.576;2023-04-23T18:12:18;100940.84;;;23.51;27.95
54588;BME280;40484;50.198;19.576;2023-04-23T18:17:19;100951.80;;;23.36;28.00
54588;BME280;40484;50.198;19.576;2023-04-23T18:22:21;100953.93;;;23.19;28.12
54588;BME280;40484;50.198;19.576;2023-04-23T18:27:22;100955.08;;;23.00;28.73
54588;BME280;40484;50.198;19.576;2023-04-23T18:32:25;100951.08;;;22.73;29.28
54588;BME280;40484;50.198;19.576;2023-04-23T18:37:37;100950.32;;;22.40;29.92
54588;BME280;40484;50.198;19.576;2023-04-23T18:42:37;100946.05;;;22.23;30.12
54588;BME280;40484;50.198;19.576;2023-04-23T18:47:43;100953.03;;;22.08;30.31
54588;BME280;40484;50.198;19.576;2023-04-23T18:52:45;100954.58;;;21.97;30.15
54588;BME280;40484;50.198;19.576;2023-04-23T18:57:47;100954.51;;;21.99;30.06
54588;BME280;40484;50.198;19.576;2023-04-23T19:02:48;100952.98;;;21.76;30.60
54588;BME280;40484;50.198;19.576;2023-04-23T19:07:50;100942.99;;;21.53;30.68
54588;BME280;40484;50.198;19.576;2023-04-23T19:12:51;100944.16;;;21.36;30.96
54588;BME280;40484;50.198;19.576;2023-04-23T19:17:54;100945.05;;;21.14;31.78
54588;BME280;40484;50.198;19.576;2023-04-23T19:22:55;100946.85;;;20.96;32.01
54588;BME280;40484;50.198;19.576;2023-04-23T19:28:23;100944.05;;;20.93;31.98
54588;BME280;40484;50.198;19.576;2023-04-23T19:33:25;100943.95;;;20.90;31.81
54588;BME280;40484;50.198;19.576;2023-04-23T19:38:27;100947.50;;;20.76;32.20
